sensor_id;sensor_type;location;lat;lon;timestamp;P1;durP1;ratioP1;P2;durP2;ratioP2
41829;SDS011;38614;43.472;23.936;2022-11-20T00:00:03;33.35;;;14.75;;
41829;SDS011;38614;43.472;23.936;2022-11-20T00:02:52;31.50;;;15.40;;
41829;SDS011;38614;43.472;23.936;2022-11-20T00:05:40;26.20;;;13.50;;
41829;SDS011;38614;43.472;23.936;2022-11-20T00:08:28;28.50;;;13.88;;
41829;SDS011;38614;43.472;23.936;2022-11-20T00:11:17;32.85;;;16.27;;
41829;SDS011;38614;43.472;23.936;2022-11-20T00:14:09;23.90;;;14.25;;
41829;SDS011;38614;43.472;23.936;2022-11-20T00:16:57;34.95;;;15.60;;
41829;SDS011;38614;43.472;23.936;2022-11-20T00:19:45;27.88;;;14.82;;
41829;SDS011;38614;43.472;23.936;2022-11-20T00:22:33;33.05;;;17.42;;
41829;SDS011;38614;43.472;23.936;2022-11-20T00:25:20;37.13;;;17.23;;
41829;SDS011;38614;43.472;23.936;2022-11-20T00:28:08;31.35;;;15.80;;
41829;SDS011;38614;43.472;23.936;2022-11-20T00:31:09;35.13;;;17.42;;
41829;SDS011;38614;43.472;23.936;2022-11-20T00:33:59;33.25;;;15.45;;
41829;SDS011;38614;43.472;23.936;2022-11-20T00:36:46;38.58;;;17.90;;
41829;SDS011;38614;43.472;23.936;2022-11-20T00:39:34;34.33;;;17.92;;
41829;SDS011;38614;43.472;23.936;2022-11-20T00:42:22;37.70;;;18.75;;
41829;SDS011;38614;43.472;23.936;2022-11-20T00:45:09;33.30;;;18.10;;
41829;SDS011;38614;43.472;23.936;2022-11-20T00:47:57;40.80;;;19.83;;
41829;SDS011;38614;43.472;23.936;2022-11-20T00:50:45;48.45;;;21.88;;
41829;SDS011;38614;43.472;23.936;2022-11-20T00:53:32;39.03;;;19.60;;
41829;SDS011;38614;43.472;23.936;2022-11-20T00:56:20;43.35;;;21.83;;
41829;SDS011;38614;43.472;23.936;2022-11-20T00:59:08;46.00;;;19.33;;
41829;SDS011;38614;43.472;23.936;2022-11-20T01:01:56;42.58;;;19.30;;
41829;SDS011;38614;43.472;23.936;2022-11-20T01:04:44;40.13;;;20.73;;
41829;SDS011;38614;43.472;23.936;2022-11-20T01:07:32;43.08;;;19.98;;
41829;SDS011;38614;43.472;23.936;2022-11-20T01:10:20;41.83;;;19.73;;
41829;SDS011;38614;43.472;23.936;2022-11-20T01:13:07;41.30;;;18.85;;
41829;SDS011;38614;43.472;23.936;2022-11-20T01:19:09;43.53;;;19.23;;
41829;SDS011;38614;43.472;23.936;2022-11-20T01:22:03;36.67;;;19.10;;
41829;SDS011;38614;43.472;23.936;2022-11-20T01:24:51;44.45;;;19.48;;
41829;SDS011;38614;43.472;23.936;2022-11-20T01:27:42;48.63;;;19.80;;
41829;SDS011;38614;43.472;23.936;2022-11-20T01:30:29;46.30;;;19.70;;
41829;SDS011;38614;43.472;23.936;2022-11-20T01:33:17;43.47;;;19.67;;
41829;SDS011;38614;43.472;23.936;2022-11-20T01:36:05;38.65;;;19.13;;
41829;SDS011;38614;43.472;23.936;2022-11-20T01:38:54;48.17;;;21.13;;
41829;SDS011;38614;43.472;23.936;2022-11-20T01:41:43;42.10;;;17.35;;
41829;SDS011;38614;43.472;23.936;2022-11-20T01:44:57;47.22;;;18.83;;
41829;SDS011;38614;43.472;23.936;2022-11-20T01:47:46;45.03;;;20.65;;
41829;SDS011;38614;43.472;23.936;2022-11-20T01:50:36;41.90;;;19.70;;
41829;SDS011;38614;43.472;23.936;2022-11-20T01:53:25;34.42;;;16.92;;
41829;SDS011;38614;43.472;23.936;2022-11-20T01:56:18;34.55;;;18.15;;
41829;SDS011;38614;43.472;23.936;2022-11-20T01:59:08;41.90;;;17.35;;
41829;SDS011;38614;43.472;23.936;2022-11-20T02:02:07;45.08;;;19.38;;
41829;SDS011;38614;43.472;23.936;2022-11-20T02:05:01;43.38;;;18.80;;
41829;SDS011;38614;43.472;23.936;2022-11-20T02:07:57;47.90;;;19.40;;
41829;SDS011;38614;43.472;23.936;2022-11-20T02:10:46;53.45;;;20.75;;
41829;SDS011;38614;43.472;23.936;2022-11-20T02:13:36;54.50;;;23.00;;
41829;SDS011;38614;43.472;23.936;2022-11-20T02:16:39;50.80;;;21.90;;
41829;SDS011;38614;43.472;23.936;2022-11-20T02:19:34;48.00;;;21.98;;
41829;SDS011;38614;43.472;23.936;2022-11-20T02:22:28;56.75;;;22.55;;
41829;SDS011;38614;43.472;23.936;2022-11-20T02:25:20;44.00;;;20.67;;
41829;SDS011;38614;43.472;23.936;2022-11-20T02:28:08;59.10;;;22.77;;
41829;SDS011;38614;43.472;23.936;2022-11-20T02:30:57;60.15;;;24.17;;
41829;SDS011;38614;43.472;23.936;2022-11-20T02:33:45;58.25;;;24.67;;
41829;SDS011;38614;43.472;23.936;2022-11-20T02:36:33;63.97;;;26.10;;
41829;SDS011;38614;43.472;23.936;2022-11-20T02:39:23;54.45;;;25.08;;
41829;SDS011;38614;43.472;23.936;2022-11-20T02:42:13;57.75;;;23.55;;
41829;SDS011;38614;43.472;23.936;2022-11-20T02:45:01;67.93;;;26.08;;
41829;SDS011;38614;43.472;23.936;2022-11-20T02:47:49;71.50;;;28.20;;
41829;SDS011;38614;43.472;23.936;2022-11-20T02:50:38;72.90;;;26.33;;
41829;SDS011;38614;43.472;23.936;2022-11-20T02:53:27;69.63;;;28.35;;
41829;SDS011;38614;43.472;23.936;2022-11-20T02:56:17;78.75;;;29.23;;
41829;SDS011;38614;43.472;23.936;2022-11-20T02:59:05;71.47;;;29.25;;
41829;SDS011;38614;43.472;23.936;2022-11-20T03:01:53;66.40;;;26.80;;
41829;SDS011;38614;43.472;23.936;2022-11-20T03:04:41;69.65;;;28.50;;
41829;SDS011;38614;43.472;23.936;2022-11-20T03:07:29;83.25;;;28.92;;
41829;SDS011;38614;43.472;23.936;2022-11-20T03:10:17;67.07;;;28.25;;
41829;SDS011;38614;43.472;23.936;2022-11-20T03:13:05;78.72;;;27.55;;
41829;SDS011;38614;43.472;23.936;2022-11-20T03:15:53;75.50;;;29.08;;
41829;SDS011;38614;43.472;23.936;2022-11-20T03:18:41;61.35;;;25.33;;
41829;SDS011;38614;43.472;23.936;2022-11-20T03:21:29;58.65;;;23.58;;
41829;SDS011;38614;43.472;23.936;2022-11-20T03:24:17;65.25;;;25.65;;
41829;SDS011;38614;43.472;23.936;2022-11-20T03:27:05;80.65;;;27.45;;
41829;SDS011;38614;43.472;23.936;2022-11-20T03:29:52;69.03;;;25.75;;
41829;SDS011;38614;43.472;23.936;2022-11-20T03:32:40;62.58;;;24.50;;
41829;SDS011;38614;43.472;23.936;2022-11-20T03:35:28;58.97;;;23.77;;
41829;SDS011;38614;43.472;23.936;2022-11-20T03:38:16;69.88;;;26.40;;
41829;SDS011;38614;43.472;23.936;2022-11-20T03:41:04;65.90;;;25.35;;
41829;SDS011;38614;43.472;23.936;2022-11-20T03:43:56;63.92;;;23.88;;
41829;SDS011;38614;43.472;23.936;2022-11-20T03:46:47;60.90;;;24.33;;
41829;SDS011;38614;43.472;23.936;2022-11-20T03:49:35;65.40;;;24.40;;
41829;SDS011;38614;43.472;23.936;2022-11-20T03:52:24;69.15;;;25.67;;
41829;SDS011;38614;43.472;23.936;2022-11-20T03:55:11;67.75;;;25.80;;
41829;SDS011;38614;43.472;23.936;2022-11-20T03:57:59;76.07;;;26.25;;
41829;SDS011;38614;43.472;23.936;2022-11-20T04:00:47;78.72;;;24.27;;
41829;SDS011;38614;43.472;23.936;2022-11-20T04:03:35;62.17;;;24.00;;
41829;SDS011;38614;43.472;23.936;2022-11-20T04:06:28;71.30;;;26.02;;
41829;SDS011;38614;43.472;23.936;2022-11-20T04:09:17;83.93;;;27.02;;
41829;SDS011;38614;43.472;23.936;2022-11-20T04:12:05;72.90;;;26.67;;
41829;SDS011;38614;43.472;23.936;2022-11-20T04:14:56;75.68;;;27.45;;
41829;SDS011;38614;43.472;23.936;2022-11-20T04:17:43;75.32;;;25.73;;
41829;SDS011;38614;43.472;23.936;2022-11-20T04:20:31;80.72;;;26.67;;
41829;SDS011;38614;43.472;23.936;2022-11-20T04:23:19;63.95;;;23.52;;
41829;SDS011;38614;43.472;23.936;2022-11-20T04:26:14;66.85;;;23.77;;
41829;SDS011;38614;43.472;23.936;2022-11-20T04:29:02;79.15;;;26.35;;
41829;SDS011;38614;43.472;23.936;2022-11-20T04:31:50;70.22;;;27.30;;
41829;SDS011;38614;43.472;23.936;2022-11-20T04:34:38;84.32;;;29.15;;
41829;SDS011;38614;43.472;23.936;2022-11-20T04:37:25;73.70;;;25.83;;
41829;SDS011;38614;43.472;23.936;2022-11-20T04:40:13;74.88;;;26.33;;
41829;SDS011;38614;43.472;23.936;2022-11-20T04:43:01;71.75;;;24.08;;
41829;SDS011;38614;43.472;23.936;2022-11-20T04:45:52;70.57;;;24.67;;
41829;SDS011;38614;43.472;23.936;2022-11-20T04:48:41;76.60;;;24.45;;
41829;SDS011;38614;43.472;23.936;2022-11-20T04:51:29;60.63;;;24.88;;
41829;SDS011;38614;43.472;23.936;2022-11-20T04:54:16;72.90;;;25.02;;
41829;SDS011;38614;43.472;23.936;2022-11-20T04:57:10;71.30;;;23.45;;
41829;SDS011;38614;43.472;23.936;2022-11-20T05:00:00;72.35;;;23.45;;
41829;SDS011;38614;43.472;23.936;2022-11-20T05:02:48;76.63;;;25.60;;
41829;SDS011;38614;43.472;23.936;2022-11-20T05:05:36;74.93;;;25.35;;
41829;SDS011;38614;43.472;23.936;2022-11-20T05:08:26;62.50;;;23.35;;
41829;SDS011;38614;43.472;23.936;2022-11-20T05:11:15;62.50;;;24.30;;
41829;SDS011;38614;43.472;23.936;2022-11-20T05:14:04;63.33;;;23.75;;
41829;SDS011;38614;43.472;23.936;2022-11-20T05:16:55;66.10;;;25.23;;
41829;SDS011;38614;43.472;23.936;2022-11-20T05:19:42;68.72;;;23.27;;
41829;SDS011;38614;43.472;23.936;2022-11-20T05:22:33;63.50;;;24.33;;
41829;SDS011;38614;43.472;23.936;2022-11-20T05:25:23;72.07;;;25.58;;
41829;SDS011;38614;43.472;23.936;2022-11-20T05:28:11;68.53;;;23.75;;
41829;SDS011;38614;43.472;23.936;2022-11-20T05:31:04;55.67;;;23.08;;
41829;SDS011;38614;43.472;23.936;2022-11-20T05:33:52;56.58;;;21.50;;
41829;SDS011;38614;43.472;23.936;2022-11-20T05:36:41;69.30;;;24.55;;
41829;SDS011;38614;43.472;23.936;2022-11-20T05:39:28;52.55;;;22.80;;
41829;SDS011;38614;43.472;23.936;2022-11-20T05:42:16;56.25;;;23.17;;
41829;SDS011;38614;43.472;23.936;2022-11-20T05:45:19;60.17;;;22.88;;
41829;SDS011;38614;43.472;23.936;2022-11-20T05:48:07;66.18;;;24.25;;
41829;SDS011;38614;43.472;23.936;2022-11-20T05:50:56;64.28;;;25.30;;
41829;SDS011;38614;43.472;23.936;2022-11-20T05:53:45;66.38;;;22.63;;
41829;SDS011;38614;43.472;23.936;2022-11-20T05:56:34;58.97;;;23.48;;
41829;SDS011;38614;43.472;23.936;2022-11-20T05:59:22;64.82;;;24.40;;
41829;SDS011;38614;43.472;23.936;2022-11-20T06:02:10;60.30;;;23.67;;
41829;SDS011;38614;43.472;23.936;2022-11-20T06:05:01;57.05;;;21.10;;
41829;SDS011;38614;43.472;23.936;2022-11-20T06:07:49;63.78;;;24.58;;
41829;SDS011;38614;43.472;23.936;2022-11-20T06:10:37;54.75;;;23.77;;
41829;SDS011;38614;43.472;23.936;2022-11-20T06:13:28;47.70;;;20.40;;
41829;SDS011;38614;43.472;23.936;2022-11-20T06:16:16;55.17;;;22.38;;
41829;SDS011;38614;43.472;23.936;2022-11-20T06:19:08;47.42;;;20.20;;
41829;SDS011;38614;43.472;23.936;2022-11-20T06:21:58;45.78;;;20.70;;
41829;SDS011;38614;43.472;23.936;2022-11-20T06:24:46;66.95;;;23.80;;
41829;SDS011;38614;43.472;23.936;2022-11-20T06:27:34;54.05;;;23.35;;
41829;SDS011;38614;43.472;23.936;2022-11-20T06:30:22;68.43;;;27.08;;
41829;SDS011;38614;43.472;23.936;2022-11-20T06:33:13;56.85;;;23.73;;
41829;SDS011;38614;43.472;23.936;2022-11-20T06:36:00;51.17;;;21.35;;
41829;SDS011;38614;43.472;23.936;2022-11-20T06:38:57;72.20;;;23.05;;
41829;SDS011;38614;43.472;23.936;2022-11-20T06:41:46;57.67;;;22.70;;
41829;SDS011;38614;43.472;23.936;2022-11-20T06:44:34;64.63;;;24.30;;
41829;SDS011;38614;43.472;23.936;2022-11-20T06:47:21;58.58;;;21.75;;
41829;SDS011;38614;43.472;23.936;2022-11-20T06:50:09;70.07;;;23.58;;
41829;SDS011;38614;43.472;23.936;2022-11-20T06:53:00;63.13;;;25.73;;
41829;SDS011;38614;43.472;23.936;2022-11-20T06:55:50;65.40;;;26.92;;
41829;SDS011;38614;43.472;23.936;2022-11-20T06:58:41;64.07;;;27.88;;
41829;SDS011;38614;43.472;23.936;2022-11-20T07:01:29;65.85;;;23.83;;
41829;SDS011;38614;43.472;23.936;2022-11-20T07:04:16;60.83;;;26.17;;
41829;SDS011;38614;43.472;23.936;2022-11-20T07:07:07;65.63;;;27.75;;
41829;SDS011;38614;43.472;23.936;2022-11-20T07:09:56;54.00;;;21.90;;
41829;SDS011;38614;43.472;23.936;2022-11-20T07:12:48;57.40;;;24.65;;
41829;SDS011;38614;43.472;23.936;2022-11-20T07:15:37;94.65;;;43.75;;
41829;SDS011;38614;43.472;23.936;2022-11-20T07:18:25;72.90;;;29.95;;
41829;SDS011;38614;43.472;23.936;2022-11-20T07:21:13;96.03;;;38.97;;
41829;SDS011;38614;43.472;23.936;2022-11-20T07:24:03;52.75;;;24.55;;
41829;SDS011;38614;43.472;23.936;2022-11-20T07:26:51;69.47;;;26.50;;
41829;SDS011;38614;43.472;23.936;2022-11-20T07:29:39;62.67;;;27.35;;
41829;SDS011;38614;43.472;23.936;2022-11-20T07:32:27;56.83;;;24.45;;
41829;SDS011;38614;43.472;23.936;2022-11-20T07:35:14;67.05;;;26.85;;
41829;SDS011;38614;43.472;23.936;2022-11-20T07:38:04;58.80;;;26.77;;
41829;SDS011;38614;43.472;23.936;2022-11-20T07:40:54;55.47;;;25.50;;
41829;SDS011;38614;43.472;23.936;2022-11-20T07:43:51;55.30;;;24.10;;
41829;SDS011;38614;43.472;23.936;2022-11-20T07:46:39;59.60;;;26.15;;
41829;SDS011;38614;43.472;23.936;2022-11-20T07:49:27;59.25;;;23.77;;
41829;SDS011;38614;43.472;23.936;2022-11-20T07:52:15;58.63;;;28.52;;
41829;SDS011;38614;43.472;23.936;2022-11-20T07:55:03;56.85;;;26.50;;
41829;SDS011;38614;43.472;23.936;2022-11-20T07:57:54;53.85;;;24.67;;
41829;SDS011;38614;43.472;23.936;2022-11-20T08:03:30;56.63;;;24.35;;
41829;SDS011;38614;43.472;23.936;2022-11-20T08:06:18;52.65;;;27.30;;
41829;SDS011;38614;43.472;23.936;2022-11-20T08:09:07;47.65;;;22.05;;
41829;SDS011;38614;43.472;23.936;2022-11-20T08:11:54;42.13;;;21.70;;
41829;SDS011;38614;43.472;23.936;2022-11-20T08:15:01;47.70;;;22.77;;
41829;SDS011;38614;43.472;23.936;2022-11-20T08:17:48;54.83;;;21.83;;
41829;SDS011;38614;43.472;23.936;2022-11-20T08:20:56;43.78;;;20.80;;
41829;SDS011;38614;43.472;23.936;2022-11-20T08:23:44;44.00;;;19.35;;
41829;SDS011;38614;43.472;23.936;2022-11-20T08:26:31;39.20;;;20.80;;
41829;SDS011;38614;43.472;23.936;2022-11-20T08:29:19;40.67;;;20.73;;
41829;SDS011;38614;43.472;23.936;2022-11-20T08:32:08;45.80;;;20.63;;
41829;SDS011;38614;43.472;23.936;2022-11-20T08:34:55;41.28;;;20.73;;
41829;SDS011;38614;43.472;23.936;2022-11-20T08:37:45;37.33;;;19.45;;
41829;SDS011;38614;43.472;23.936;2022-11-20T08:40:34;38.95;;;18.95;;
41829;SDS011;38614;43.472;23.936;2022-11-20T08:43:21;42.53;;;22.13;;
41829;SDS011;38614;43.472;23.936;2022-11-20T08:46:09;36.78;;;19.65;;
41829;SDS011;38614;43.472;23.936;2022-11-20T08:48:57;32.72;;;18.17;;
41829;SDS011;38614;43.472;23.936;2022-11-20T08:51:47;39.58;;;20.70;;
41829;SDS011;38614;43.472;23.936;2022-11-20T08:54:41;38.00;;;19.67;;
41829;SDS011;38614;43.472;23.936;2022-11-20T09:00:19;32.20;;;16.90;;
41829;SDS011;38614;43.472;23.936;2022-11-20T09:03:07;37.78;;;19.77;;
41829;SDS011;38614;43.472;23.936;2022-11-20T09:05:58;37.60;;;18.63;;
41829;SDS011;38614;43.472;23.936;2022-11-20T09:08:52;36.20;;;17.73;;
41829;SDS011;38614;43.472;23.936;2022-11-20T09:11:43;33.55;;;17.05;;
41829;SDS011;38614;43.472;23.936;2022-11-20T09:14:30;32.92;;;18.30;;
41829;SDS011;38614;43.472;23.936;2022-11-20T09:17:19;31.73;;;16.00;;
41829;SDS011;38614;43.472;23.936;2022-11-20T09:20:07;34.92;;;17.88;;
41829;SDS011;38614;43.472;23.936;2022-11-20T09:22:55;25.08;;;13.73;;
41829;SDS011;38614;43.472;23.936;2022-11-20T09:25:44;26.63;;;13.05;;
41829;SDS011;38614;43.472;23.936;2022-11-20T09:28:31;24.85;;;12.52;;
41829;SDS011;38614;43.472;23.936;2022-11-20T09:31:22;24.40;;;13.60;;
41829;SDS011;38614;43.472;23.936;2022-11-20T09:34:11;27.02;;;15.13;;
41829;SDS011;38614;43.472;23.936;2022-11-20T09:36:59;24.15;;;14.80;;
41829;SDS011;38614;43.472;23.936;2022-11-20T09:39:54;29.10;;;15.63;;
41829;SDS011;38614;43.472;23.936;2022-11-20T09:45:50;35.75;;;15.77;;
41829;SDS011;38614;43.472;23.936;2022-11-20T09:48:58;35.10;;;16.23;;
41829;SDS011;38614;43.472;23.936;2022-11-20T09:52:00;26.10;;;15.90;;
41829;SDS011;38614;43.472;23.936;2022-11-20T09:55:00;39.95;;;19.83;;
41829;SDS011;38614;43.472;23.936;2022-11-20T10:00:38;27.60;;;15.93;;
41829;SDS011;38614;43.472;23.936;2022-11-20T10:03:33;38.03;;;19.58;;
41829;SDS011;38614;43.472;23.936;2022-11-20T10:06:34;35.00;;;19.35;;
41829;SDS011;38614;43.472;23.936;2022-11-20T10:12:25;44.53;;;21.05;;
41829;SDS011;38614;43.472;23.936;2022-11-20T10:15:33;45.30;;;23.35;;
41829;SDS011;38614;43.472;23.936;2022-11-20T10:24:56;34.20;;;15.40;;
41829;SDS011;38614;43.472;23.936;2022-11-20T10:30:43;25.42;;;13.35;;
41829;SDS011;38614;43.472;23.936;2022-11-20T10:33:42;30.73;;;15.15;;
41829;SDS011;38614;43.472;23.936;2022-11-20T10:36:54;29.75;;;15.82;;
41829;SDS011;38614;43.472;23.936;2022-11-20T10:39:54;26.52;;;13.20;;
41829;SDS011;38614;43.472;23.936;2022-11-20T10:42:59;31.15;;;17.45;;
41829;SDS011;38614;43.472;23.936;2022-11-20T10:45:53;22.30;;;12.95;;
41829;SDS011;38614;43.472;23.936;2022-11-20T10:49:15;30.08;;;15.20;;
41829;SDS011;38614;43.472;23.936;2022-11-20T10:52:16;32.17;;;15.98;;
41829;SDS011;38614;43.472;23.936;2022-11-20T10:58:41;45.60;;;18.40;;
41829;SDS011;38614;43.472;23.936;2022-11-20T11:01:43;31.08;;;14.93;;
41829;SDS011;38614;43.472;23.936;2022-11-20T11:04:39;31.95;;;15.57;;
41829;SDS011;38614;43.472;23.936;2022-11-20T11:07:37;46.78;;;21.23;;
41829;SDS011;38614;43.472;23.936;2022-11-20T11:13:24;25.77;;;13.85;;
41829;SDS011;38614;43.472;23.936;2022-11-20T11:16:32;25.63;;;13.88;;
41829;SDS011;38614;43.472;23.936;2022-11-20T11:19:20;24.77;;;15.50;;
41829;SDS011;38614;43.472;23.936;2022-11-20T11:22:16;50.13;;;20.77;;
41829;SDS011;38614;43.472;23.936;2022-11-20T11:25:07;29.65;;;15.30;;
41829;SDS011;38614;43.472;23.936;2022-11-20T11:31:09;26.25;;;13.88;;
41829;SDS011;38614;43.472;23.936;2022-11-20T11:34:06;23.52;;;12.88;;
41829;SDS011;38614;43.472;23.936;2022-11-20T11:36:56;32.33;;;13.57;;
41829;SDS011;38614;43.472;23.936;2022-11-20T11:39:47;24.85;;;10.75;;
41829;SDS011;38614;43.472;23.936;2022-11-20T11:42:56;25.17;;;8.80;;
41829;SDS011;38614;43.472;23.936;2022-11-20T11:45:51;23.52;;;11.15;;
41829;SDS011;38614;43.472;23.936;2022-11-20T11:48:40;15.98;;;9.43;;
41829;SDS011;38614;43.472;23.936;2022-11-20T11:54:49;18.40;;;8.77;;
41829;SDS011;38614;43.472;23.936;2022-11-20T11:57:56;26.90;;;12.80;;
41829;SDS011;38614;43.472;23.936;2022-11-20T12:01:17;20.15;;;11.73;;
41829;SDS011;38614;43.472;23.936;2022-11-20T12:16:42;39.47;;;16.52;;
41829;SDS011;38614;43.472;23.936;2022-11-20T12:19:30;25.20;;;13.48;;
41829;SDS011;38614;43.472;23.936;2022-11-20T12:22:26;28.02;;;14.35;;
41829;SDS011;38614;43.472;23.936;2022-11-20T12:25:24;30.02;;;13.38;;
41829;SDS011;38614;43.472;23.936;2022-11-20T12:37:37;24.98;;;13.32;;
41829;SDS011;38614;43.472;23.936;2022-11-20T12:40:47;26.77;;;14.63;;
41829;SDS011;38614;43.472;23.936;2022-11-20T12:43:46;26.52;;;13.55;;
41829;SDS011;38614;43.472;23.936;2022-11-20T12:56:23;23.15;;;14.93;;
41829;SDS011;38614;43.472;23.936;2022-11-20T13:03:23;32.75;;;16.70;;
41829;SDS011;38614;43.472;23.936;2022-11-20T13:08:41;24.58;;;13.15;;
41829;SDS011;38614;43.472;23.936;2022-11-20T13:11:43;26.33;;;14.18;;
41829;SDS011;38614;43.472;23.936;2022-11-20T13:14:39;41.58;;;22.55;;
41829;SDS011;38614;43.472;23.936;2022-11-20T13:20:46;29.98;;;18.50;;
41829;SDS011;38614;43.472;23.936;2022-11-20T13:23:35;37.88;;;20.58;;
41829;SDS011;38614;43.472;23.936;2022-11-20T13:26:22;49.63;;;24.70;;
41829;SDS011;38614;43.472;23.936;2022-11-20T13:29:12;49.03;;;19.60;;
41829;SDS011;38614;43.472;23.936;2022-11-20T13:35:03;36.00;;;16.25;;
41829;SDS011;38614;43.472;23.936;2022-11-20T13:43:46;22.67;;;14.48;;
41829;SDS011;38614;43.472;23.936;2022-11-20T13:46:42;18.30;;;12.13;;
41829;SDS011;38614;43.472;23.936;2022-11-20T13:49:38;18.67;;;11.38;;
41829;SDS011;38614;43.472;23.936;2022-11-20T13:56:11;17.90;;;11.05;;
41829;SDS011;38614;43.472;23.936;2022-11-20T14:02:23;24.33;;;15.65;;
41829;SDS011;38614;43.472;23.936;2022-11-20T14:05:17;44.00;;;20.02;;
41829;SDS011;38614;43.472;23.936;2022-11-20T14:08:12;54.33;;;25.30;;
41829;SDS011;38614;43.472;23.936;2022-11-20T14:11:15;34.63;;;18.25;;
41829;SDS011;38614;43.472;23.936;2022-11-20T14:14:21;41.58;;;19.52;;
41829;SDS011;38614;43.472;23.936;2022-11-20T14:17:19;34.38;;;17.38;;
41829;SDS011;38614;43.472;23.936;2022-11-20T14:20:15;38.35;;;17.48;;
41829;SDS011;38614;43.472;23.936;2022-11-20T14:23:07;32.97;;;18.00;;
41829;SDS011;38614;43.472;23.936;2022-11-20T14:25:57;27.40;;;14.32;;
41829;SDS011;38614;43.472;23.936;2022-11-20T14:28:47;29.17;;;13.63;;
41829;SDS011;38614;43.472;23.936;2022-11-20T14:31:38;26.92;;;14.82;;
41829;SDS011;38614;43.472;23.936;2022-11-20T14:34:30;28.60;;;17.27;;
41829;SDS011;38614;43.472;23.936;2022-11-20T14:37:21;29.63;;;19.13;;
41829;SDS011;38614;43.472;23.936;2022-11-20T14:40:33;30.83;;;17.55;;
41829;SDS011;38614;43.472;23.936;2022-11-20T14:43:27;29.23;;;16.83;;
41829;SDS011;38614;43.472;23.936;2022-11-20T14:46:15;30.48;;;16.17;;
41829;SDS011;38614;43.472;23.936;2022-11-20T14:49:08;39.50;;;21.25;;
41829;SDS011;38614;43.472;23.936;2022-11-20T14:57:56;43.45;;;22.42;;
41829;SDS011;38614;43.472;23.936;2022-11-20T15:00:53;40.40;;;23.50;;
41829;SDS011;38614;43.472;23.936;2022-11-20T15:03:45;40.25;;;22.73;;
41829;SDS011;38614;43.472;23.936;2022-11-20T15:06:32;36.75;;;21.88;;
41829;SDS011;38614;43.472;23.936;2022-11-20T15:09:20;50.38;;;26.17;;
41829;SDS011;38614;43.472;23.936;2022-11-20T15:12:16;49.80;;;27.02;;
41829;SDS011;38614;43.472;23.936;2022-11-20T15:15:05;57.00;;;32.17;;
41829;SDS011;38614;43.472;23.936;2022-11-20T15:17:53;46.53;;;25.52;;
41829;SDS011;38614;43.472;23.936;2022-11-20T15:20:41;39.33;;;23.45;;
41829;SDS011;38614;43.472;23.936;2022-11-20T15:23:30;35.20;;;21.73;;
41829;SDS011;38614;43.472;23.936;2022-11-20T15:26:21;37.35;;;21.85;;
41829;SDS011;38614;43.472;23.936;2022-11-20T15:29:14;33.80;;;20.42;;
41829;SDS011;38614;43.472;23.936;2022-11-20T15:32:09;32.28;;;20.55;;
41829;SDS011;38614;43.472;23.936;2022-11-20T15:34:59;29.77;;;16.15;;
41829;SDS011;38614;43.472;23.936;2022-11-20T15:37:47;26.40;;;14.15;;
41829;SDS011;38614;43.472;23.936;2022-11-20T15:40:35;24.55;;;14.85;;
41829;SDS011;38614;43.472;23.936;2022-11-20T15:43:28;20.42;;;12.80;;
41829;SDS011;38614;43.472;23.936;2022-11-20T15:46:19;22.52;;;13.45;;
41829;SDS011;38614;43.472;23.936;2022-11-20T15:49:16;21.83;;;13.73;;
41829;SDS011;38614;43.472;23.936;2022-11-20T15:52:08;24.27;;;16.45;;
41829;SDS011;38614;43.472;23.936;2022-11-20T15:54:56;31.17;;;19.50;;
41829;SDS011;38614;43.472;23.936;2022-11-20T15:57:45;34.97;;;21.92;;
41829;SDS011;38614;43.472;23.936;2022-11-20T16:00:33;44.13;;;25.70;;
41829;SDS011;38614;43.472;23.936;2022-11-20T16:03:21;33.85;;;20.90;;
41829;SDS011;38614;43.472;23.936;2022-11-20T16:06:09;30.95;;;19.52;;
41829;SDS011;38614;43.472;23.936;2022-11-20T16:08:57;34.95;;;20.85;;
41829;SDS011;38614;43.472;23.936;2022-11-20T16:11:44;33.17;;;20.95;;
41829;SDS011;38614;43.472;23.936;2022-11-20T16:14:32;42.03;;;28.00;;
41829;SDS011;38614;43.472;23.936;2022-11-20T16:17:38;49.38;;;32.55;;
41829;SDS011;38614;43.472;23.936;2022-11-20T16:20:32;48.88;;;26.98;;
41829;SDS011;38614;43.472;23.936;2022-11-20T16:23:22;28.00;;;17.40;;
41829;SDS011;38614;43.472;23.936;2022-11-20T16:26:14;26.38;;;15.00;;
41829;SDS011;38614;43.472;23.936;2022-11-20T16:29:04;30.25;;;15.82;;
41829;SDS011;38614;43.472;23.936;2022-11-20T16:31:57;43.08;;;25.95;;
41829;SDS011;38614;43.472;23.936;2022-11-20T16:34:44;38.67;;;18.40;;
41829;SDS011;38614;43.472;23.936;2022-11-20T16:37:32;52.55;;;30.45;;
41829;SDS011;38614;43.472;23.936;2022-11-20T16:40:23;35.22;;;20.58;;
41829;SDS011;38614;43.472;23.936;2022-11-20T16:43:12;47.78;;;23.25;;
41829;SDS011;38614;43.472;23.936;2022-11-20T16:46:03;33.97;;;20.98;;
41829;SDS011;38614;43.472;23.936;2022-11-20T16:48:52;63.03;;;41.60;;
41829;SDS011;38614;43.472;23.936;2022-11-20T16:51:42;21.92;;;13.55;;
41829;SDS011;38614;43.472;23.936;2022-11-20T16:54:33;21.83;;;10.82;;
41829;SDS011;38614;43.472;23.936;2022-11-20T16:57:25;27.60;;;15.57;;
41829;SDS011;38614;43.472;23.936;2022-11-20T17:00:15;19.10;;;11.98;;
41829;SDS011;38614;43.472;23.936;2022-11-20T17:03:04;19.80;;;11.50;;
41829;SDS011;38614;43.472;23.936;2022-11-20T17:05:53;34.63;;;13.25;;
41829;SDS011;38614;43.472;23.936;2022-11-20T17:08:41;31.88;;;14.15;;
41829;SDS011;38614;43.472;23.936;2022-11-20T17:11:29;20.13;;;9.48;;
41829;SDS011;38614;43.472;23.936;2022-11-20T17:14:17;19.52;;;11.68;;
41829;SDS011;38614;43.472;23.936;2022-11-20T17:17:04;13.88;;;10.88;;
41829;SDS011;38614;43.472;23.936;2022-11-20T17:19:52;15.85;;;8.88;;
41829;SDS011;38614;43.472;23.936;2022-11-20T17:22:40;17.23;;;9.52;;
41829;SDS011;38614;43.472;23.936;2022-11-20T17:25:32;22.85;;;13.30;;
41829;SDS011;38614;43.472;23.936;2022-11-20T17:28:20;15.57;;;8.43;;
41829;SDS011;38614;43.472;23.936;2022-11-20T17:31:09;7.15;;;4.50;;
41829;SDS011;38614;43.472;23.936;2022-11-20T17:34:01;9.00;;;5.13;;
41829;SDS011;38614;43.472;23.936;2022-11-20T17:36:49;7.90;;;5.82;;
41829;SDS011;38614;43.472;23.936;2022-11-20T17:39:37;19.05;;;8.80;;
41829;SDS011;38614;43.472;23.936;2022-11-20T17:42:25;62.22;;;45.88;;
41829;SDS011;38614;43.472;23.936;2022-11-20T17:45:13;32.38;;;23.15;;
41829;SDS011;38614;43.472;23.936;2022-11-20T17:48:01;22.65;;;15.02;;
41829;SDS011;38614;43.472;23.936;2022-11-20T17:50:49;8.93;;;5.50;;
41829;SDS011;38614;43.472;23.936;2022-11-20T17:53:38;5.65;;;4.00;;
41829;SDS011;38614;43.472;23.936;2022-11-20T17:56:33;9.63;;;4.82;;
41829;SDS011;38614;43.472;23.936;2022-11-20T17:59:40;6.68;;;4.40;;
41829;SDS011;38614;43.472;23.936;2022-11-20T18:02:27;11.60;;;4.80;;
41829;SDS011;38614;43.472;23.936;2022-11-20T18:05:15;12.02;;;6.32;;
41829;SDS011;38614;43.472;23.936;2022-11-20T18:08:03;12.38;;;6.45;;
41829;SDS011;38614;43.472;23.936;2022-11-20T18:10:51;17.63;;;9.02;;